Time;durP1;ratioP1;P1;durP2;ratioP2;P2;SDS_P1;SDS_P2;PMS_P1;PMS_P2;Temp;Humidity;BMP_temperature;BMP_pressure;BME280_temperature;BME280_humidity;BME280_pressure;Samples;Min_cycle;Max_cycle;Signal;HPM_P1;HPM_P2
2021/05/02 00:00:44;;;;;;;23.80;3.40;;;18.80;59.90;;;;;;5062203;28;20195;-66
2021/05/02 00:03:10;;;;;;;26.60;3.07;;;18.70;60.00;;;;;;5059608;28;20192;-66
2021/05/02 00:05:37;;;;;;;23.50;3.50;;;18.60;60.10;;;;;;5062012;28;20187;-64
2021/05/02 00:08:05;;;;;;;17.10;3.13;;;18.50;60.30;;;;;;5061615;28;20191;-66
2021/05/02 00:10:34;;;;;;;15.60;3.37;;;18.50;58.50;;;;;;5058693;28;20724;-65
2021/05/02 00:13:04;;;;;;;19.33;3.67;;;18.30;60.80;;;;;;5060793;28;20261;-67
2021/05/02 00:15:32;;;;;;;23.20;3.43;;;18.00;59.60;;;;;;5061556;28;21059;-67
2021/05/02 00:17:59;;;;;;;18.43;3.17;;;18.00;58.70;;;;;;5060388;28;20260;-66
2021/05/02 00:20:27;;;;;;;15.67;2.97;;;18.10;58.60;;;;;;5065073;28;20492;-67
2021/05/02 00:22:59;;;;;;;24.60;3.13;;;18.10;59.80;;;;;;5058465;28;20211;-69
2021/05/02 00:25:30;;;;;;;16.20;2.97;;;18.10;58.80;;;;;;5059875;28;20618;-69
2021/05/02 00:27:58;;;;;;;21.60;4.10;;;18.10;58.00;;;;;;5060321;28;20194;-66
2021/05/02 00:30:27;;;;;;;14.07;3.07;;;18.20;58.60;;;;;;5061265;28;20600;-67
2021/05/02 00:32:55;;;;;;;20.93;3.00;;;18.20;57.80;;;;;;5062977;28;20617;-66
2021/05/02 00:35:24;;;;;;;24.10;3.73;;;18.20;58.60;;;;;;5062474;28;20242;-66
2021/05/02 00:37:55;;;;;;;22.90;3.30;;;18.00;58.10;;;;;;5062005;28;20261;-69
2021/05/02 00:40:37;;;;;;;24.03;3.90;;;18.10;59.00;;;;;;5061717;28;20673;-67
2021/05/02 00:43:26;;;;;;;27.83;3.70;;;18.10;59.20;;;;;;5060079;28;20224;-67
2021/05/02 00:46:08;;;;;;;19.17;3.97;;;18.20;58.50;;;;;;5061849;28;20935;-69
2021/05/02 00:48:45;;;;;;;21.13;3.57;;;18.20;58.80;;;;;;5059799;28;20367;-66
2021/05/02 00:51:16;;;;;;;23.53;3.67;;;18.10;58.60;;;;;;5062139;28;20533;-65
2021/05/02 00:54:06;;;;;;;23.30;3.93;;;18.20;59.00;;;;;;5057367;28;20191;-67
2021/05/02 00:56:50;;;;;;;24.30;4.27;;;18.30;59.50;;;;;;5057188;28;20752;-67
2021/05/02 00:59:31;;;;;;;30.13;3.90;;;18.40;58.70;;;;;;5062308;28;20563;-65
2021/05/02 01:02:03;;;;;;;21.07;3.80;;;18.30;57.70;;;;;;5060510;28;20195;-69
2021/05/02 01:04:32;;;;;;;30.63;4.70;;;18.40;57.50;;;;;;5063851;28;20194;-67
2021/05/02 01:07:04;;;;;;;24.20;4.00;;;18.40;59.10;;;;;;5059677;28;20187;-70
2021/05/02 01:09:32;;;;;;;36.43;5.40;;;18.40;58.70;;;;;;5062657;28;20795;-67
2021/05/02 01:12:02;;;;;;;30.03;4.57;;;18.40;59.00;;;;;;5063381;28;20213;-66
2021/05/02 01:14:35;;;;;;;24.07;4.43;;;18.40;59.60;;;;;;5062064;28;20191;-66
2021/05/02 01:17:07;;;;;;;19.37;4.30;;;18.50;59.60;;;;;;5059913;28;20207;-67
2021/05/02 01:19:34;;;;;;;31.27;5.57;;;18.60;59.70;;;;;;5043566;28;20182;-66
2021/05/02 01:22:02;;;;;;;26.53;4.77;;;18.40;60.20;;;;;;5059783;28;20183;-67
2021/05/02 01:24:28;;;;;;;21.83;3.63;;;18.30;62.90;;;;;;5062227;28;20198;-66
2021/05/02 01:26:55;;;;;;;25.60;4.37;;;18.10;63.80;;;;;;5063661;28;20274;-68
2021/05/02 01:29:24;;;;;;;36.60;5.60;;;17.90;64.90;;;;;;5060028;28;20191;-67
2021/05/02 01:31:50;;;;;;;22.43;4.90;;;17.90;65.60;;;;;;5061835;28;20984;-65
2021/05/02 01:34:17;;;;;;;26.93;4.60;;;17.90;67.20;;;;;;5060799;28;20199;-68
2021/05/02 01:36:44;;;;;;;27.20;4.93;;;17.70;67.90;;;;;;5054114;28;20216;-65
2021/05/02 01:39:11;;;;;;;25.57;4.70;;;17.70;66.40;;;;;;5060247;28;20861;-66
2021/05/02 01:41:38;;;;;;;25.83;5.57;;;17.70;66.10;;;;;;5062650;28;20186;-66
2021/05/02 01:44:05;;;;;;;29.50;5.10;;;17.90;64.60;;;;;;5055433;28;20191;-67
2021/05/02 01:46:41;;;;;;;35.07;5.43;;;18.00;65.90;;;;;;5062447;28;20195;-67
2021/05/02 01:49:15;;;;;;;25.83;4.90;;;18.00;67.20;;;;;;5065642;27;20198;-67
2021/05/02 01:51:42;;;;;;;38.93;6.03;;;17.90;66.10;;;;;;5060435;28;20203;-67
2021/05/02 01:54:13;;;;;;;28.87;6.27;;;18.00;66.40;;;;;;5061072;28;20179;-65
2021/05/02 01:56:40;;;;;;;23.50;4.83;;;18.00;66.70;;;;;;5059888;28;20269;-66
2021/05/02 01:59:07;;;;;;;27.50;5.50;;;17.90;67.60;;;;;;5059611;28;20650;-65
2021/05/02 02:01:33;;;;;;;19.13;4.50;;;17.80;68.00;;;;;;5061663;28;21072;-64
2021/05/02 02:04:06;;;;;;;31.20;5.17;;;17.80;68.00;;;;;;5057964;28;20270;-68
2021/05/02 02:06:34;;;;;;;24.80;4.83;;;17.90;68.20;;;;;;5060646;28;20198;-68
2021/05/02 02:09:06;;;;;;;33.70;5.63;;;17.90;67.50;;;;;;5054885;28;20198;-65
2021/05/02 02:11:34;;;;;;;37.57;4.77;;;18.00;67.10;;;;;;5059920;28;20187;-66
2021/05/02 02:14:01;;;;;;;24.27;4.83;;;18.10;66.80;;;;;;5061707;28;20688;-67
2021/05/02 02:16:27;;;;;;;28.63;5.00;;;18.10;64.90;;;;;;5059672;28;20720;-67
2021/05/02 02:18:55;;;;;;;33.47;5.63;;;18.20;63.50;;;;;;5057621;28;20190;-66
2021/05/02 02:21:25;;;;;;;27.87;4.70;;;18.30;62.00;;;;;;5056632;28;20229;-67
2021/05/02 02:23:59;;;;;;;29.73;4.83;;;18.40;63.40;;;;;;5060143;28;20188;-67
2021/05/02 02:26:35;;;;;;;21.57;4.30;;;18.50;63.30;;;;;;5062575;28;20206;-67
2021/05/02 02:29:07;;;;;;;25.77;4.80;;;18.50;63.70;;;;;;5059465;28;20194;-67
2021/05/02 02:31:35;;;;;;;33.73;5.10;;;18.40;63.80;;;;;;5059378;28;20666;-67
2021/05/02 02:34:05;;;;;;;26.53;4.57;;;18.40;62.50;;;;;;5061577;28;20226;-67
2021/05/02 02:36:33;;;;;;;26.43;5.17;;;18.50;63.50;;;;;;5058800;28;20211;-66
2021/05/02 02:39:00;;;;;;;28.33;4.73;;;18.60;64.80;;;;;;5056386;28;20178;-69
2021/05/02 02:41:30;;;;;;;31.13;5.30;;;18.40;67.70;;;;;;5058288;28;20194;-67
2021/05/02 02:43:58;;;;;;;25.73;5.13;;;18.30;68.00;;;;;;5060909;28;20191;-66
2021/05/02 02:46:26;;;;;;;23.47;4.57;;;18.30;66.40;;;;;;5061591;28;20895;-66
2021/05/02 02:49:00;;;;;;;29.03;4.87;;;18.30;66.00;;;;;;5061868;28;20201;-66
2021/05/02 02:51:28;;;;;;;22.90;5.00;;;18.30;65.20;;;;;;5061916;28;20209;-69
2021/05/02 02:54:03;;;;;;;31.60;4.93;;;18.30;65.60;;;;;;5071644;28;20248;-63
2021/05/02 02:56:32;;;;;;;28.53;5.37;;;18.40;66.50;;;;;;5056976;28;20241;-64
2021/05/02 02:59:25;;;;;;;28.67;4.80;;;18.40;66.80;;;;;;5076106;28;20186;-64
2021/05/02 03:01:56;;;;;;;26.43;5.20;;;18.40;66.10;;;;;;5076063;28;20190;-66
2021/05/02 03:04:24;;;;;;;20.87;4.97;;;18.50;66.00;;;;;;5057864;28;20652;-66
2021/05/02 03:06:58;;;;;;;34.03;4.90;;;18.50;65.50;;;;;;5059381;28;20195;-66
2021/05/02 03:09:26;;;;;;;23.97;4.83;;;18.60;65.70;;;;;;5056959;28;20183;-66
2021/05/02 03:11:52;;;;;;;30.57;5.27;;;18.60;66.10;;;;;;5061423;28;20191;-66
2021/05/02 03:14:18;;;;;;;32.17;4.70;;;18.70;66.10;;;;;;5055700;28;20278;-67
2021/05/02 03:16:50;;;;;;;24.43;4.47;;;18.60;67.70;;;;;;5060487;28;20624;-66
2021/05/02 03:19:27;;;;;;;22.17;5.30;;;18.60;70.10;;;;;;5059203;28;20221;-66
2021/05/02 03:22:07;;;;;;;22.50;4.70;;;18.50;70.90;;;;;;5057904;28;20186;-65
2021/05/02 03:24:40;;;;;;;31.97;5.10;;;18.40;70.80;;;;;;5058768;28;20253;-68
2021/05/02 03:27:27;;;;;;;28.40;4.60;;;18.30;70.70;;;;;;5057163;28;20210;-67
2021/05/02 03:29:57;;;;;;;19.80;4.67;;;18.30;70.60;;;;;;5057328;28;20191;-65
2021/05/02 03:32:31;;;;;;;16.67;4.13;;;18.40;70.70;;;;;;5053787;28;20324;-66
2021/05/02 03:35:02;;;;;;;22.13;3.90;;;18.50;69.30;;;;;;5057335;28;20207;-65
2021/05/02 03:37:35;;;;;;;18.83;3.90;;;18.60;68.70;;;;;;5061918;28;20732;-66
2021/05/02 03:40:05;;;;;;;17.93;3.80;;;18.80;68.40;;;;;;5056626;28;20532;-66
2021/05/02 03:42:34;;;;;;;23.73;4.27;;;18.90;69.10;;;;;;5063575;28;20214;-63
2021/05/02 03:45:02;;;;;;;19.10;3.90;;;19.00;70.30;;;;;;5063591;28;20218;-66
2021/05/02 03:47:28;;;;;;;20.33;3.80;;;19.00;69.30;;;;;;5062902;28;20195;-64
2021/05/02 03:49:55;;;;;;;17.83;3.47;;;19.00;69.80;;;;;;5063741;28;20192;-64
2021/05/02 03:52:21;;;;;;;16.80;3.07;;;19.00;71.30;;;;;;5064142;28;20198;-64
2021/05/02 03:54:53;;;;;;;15.50;3.63;;;19.00;71.90;;;;;;5061902;28;20179;-67
2021/05/02 03:57:20;;;;;;;13.37;3.30;;;19.00;72.90;;;;;;5071063;28;20187;-68
2021/05/02 03:59:47;;;;;;;11.77;3.50;;;18.90;75.00;;;;;;5061220;28;20271;-69
2021/05/02 04:02:15;;;;;;;16.93;3.63;;;19.00;73.50;;;;;;5063245;28;20633;-68
2021/05/02 04:04:42;;;;;;;16.90;3.67;;;19.00;75.10;;;;;;5059312;28;20197;-67
2021/05/02 04:07:11;;;;;;;14.07;3.30;;;19.00;76.40;;;;;;5062035;28;20190;-68
2021/05/02 04:09:42;;;;;;;18.70;3.37;;;19.00;78.10;;;;;;5061651;28;20179;-66
2021/05/02 04:12:10;;;;;;;11.37;3.07;;;19.00;79.10;;;;;;5064465;28;20195;-66
2021/05/02 04:14:37;;;;;;;15.60;3.50;;;18.90;80.40;;;;;;5066096;28;20191;-66
2021/05/02 04:17:07;;;;;;;17.40;2.93;;;19.00;81.50;;;;;;5061116;28;20206;-67
2021/05/02 04:19:37;;;;;;;13.70;3.67;;;19.00;81.30;;;;;;5061833;28;20635;-68
2021/05/02 04:22:08;;;;;;;15.33;3.67;;;19.00;81.10;;;;;;5063364;28;20187;-65
2021/05/02 04:24:35;;;;;;;17.47;3.73;;;19.20;81.30;;;;;;5060660;28;20213;-65
2021/05/02 04:27:03;;;;;;;17.47;3.20;;;19.20;82.50;;;;;;5062001;28;20191;-68
2021/05/02 04:29:32;;;;;;;16.83;3.20;;;19.30;84.20;;;;;;5061979;28;20270;-65
2021/05/02 04:32:00;;;;;;;16.60;3.50;;;19.40;84.70;;;;;;5059430;28;20230;-66
2021/05/02 04:34:27;;;;;;;16.83;3.57;;;19.50;85.80;;;;;;5062676;28;20182;-65
2021/05/02 04:36:57;;;;;;;12.77;3.30;;;19.60;86.60;;;;;;5061742;28;20219;-66
2021/05/02 04:39:25;;;;;;;17.47;3.23;;;19.70;87.00;;;;;;5060948;28;20193;-67
2021/05/02 04:41:52;;;;;;;15.20;3.63;;;19.70;84.80;;;;;;5062921;28;20246;-67
2021/05/02 04:44:19;;;;;;;22.87;4.03;;;19.70;84.90;;;;;;5058431;28;20194;-66
2021/05/02 04:46:46;;;;;;;20.87;3.80;;;19.80;83.30;;;;;;5058917;28;20190;-66
2021/05/02 04:49:12;;;;;;;19.90;3.23;;;19.90;86.50;;;;;;5059872;28;20202;-66
2021/05/02 04:51:39;;;;;;;20.27;3.80;;;20.00;84.50;;;;;;5058101;28;20313;-66
2021/05/02 04:54:07;;;;;;;22.73;4.20;;;20.20;82.40;;;;;;5061936;28;20281;-66
2021/05/02 04:56:38;;;;;;;17.27;3.50;;;20.30;83.70;;;;;;5060711;28;20219;-68
2021/05/02 04:59:06;;;;;;;24.40;4.07;;;20.40;83.00;;;;;;5054081;28;20198;-68
2021/05/02 05:01:33;;;;;;;26.23;3.93;;;20.60;87.40;;;;;;5060467;28;20205;-67
2021/05/02 05:04:00;;;;;;;21.27;3.87;;;20.70;88.90;;;;;;5063843;28;20237;-63
2021/05/02 05:06:26;;;;;;;13.77;3.77;;;20.80;90.20;;;;;;5060643;28;20194;-65
2021/05/02 05:08:52;;;;;;;18.17;3.73;;;20.90;90.50;;;;;;5064918;28;20203;-65
2021/05/02 05:11:21;;;;;;;22.17;3.83;;;21.10;90.60;;;;;;5060017;28;20187;-64
2021/05/02 05:13:48;;;;;;;25.87;4.20;;;21.10;81.60;;;;;;5060138;28;20191;-67
2021/05/02 05:16:15;;;;;;;31.23;4.80;;;21.00;82.90;;;;;;5080329;28;20591;-68
2021/05/02 05:18:41;;;;;;;19.03;3.40;;;21.00;78.70;;;;;;5052173;28;20187;-65
2021/05/02 05:21:08;;;;;;;20.73;3.43;;;21.00;74.80;;;;;;5058140;28;20191;-69
2021/05/02 05:23:35;;;;;;;21.63;4.00;;;20.90;80.90;;;;;;5060200;28;20187;-65
2021/05/02 05:26:01;;;;;;;20.80;3.57;;;21.00;77.80;;;;;;5061077;28;20337;-69
2021/05/02 05:28:28;;;;;;;23.93;3.93;;;21.00;72.60;;;;;;5059177;28;20768;-65
2021/05/02 05:30:55;;;;;;;20.90;5.50;;;21.00;75.00;;;;;;5058335;28;20194;-65
2021/05/02 05:33:27;;;;;;;19.43;5.60;;;21.10;73.00;;;;;;5059811;28;20244;-66
2021/05/02 05:35:54;;;;;;;24.53;6.87;;;21.10;71.10;;;;;;5071239;28;20639;-63
2021/05/02 05:38:20;;;;;;;30.60;8.30;;;21.00;66.70;;;;;;5059534;28;20189;-70
2021/05/02 05:40:47;;;;;;;22.67;8.53;;;21.20;63.80;;;;;;5060012;28;20198;-65
2021/05/02 05:43:13;;;;;;;25.73;9.93;;;21.30;67.40;;;;;;5059561;28;20187;-63
2021/05/02 05:45:39;;;;;;;19.83;8.03;;;21.30;69.10;;;;;;5059428;28;20220;-66
2021/05/02 05:48:06;;;;;;;22.77;7.90;;;21.20;70.70;;;;;;5058175;28;20233;-65
2021/05/02 05:50:33;;;;;;;17.97;5.30;;;21.20;72.20;;;;;;5059526;28;20190;-67
2021/05/02 05:52:59;;;;;;;16.10;4.73;;;21.30;70.60;;;;;;5056467;28;20223;-64
2021/05/02 05:55:26;;;;;;;21.93;4.27;;;21.40;69.80;;;;;;5056222;28;20203;-65
2021/05/02 05:57:53;;;;;;;22.23;3.90;;;21.60;69.00;;;;;;5062466;28;20236;-66
2021/05/02 06:00:23;;;;;;;19.43;3.73;;;21.60;66.40;;;;;;5058383;28;21009;-64
2021/05/02 06:02:50;;;;;;;13.93;3.77;;;21.70;69.00;;;;;;5054725;28;20179;-65
2021/05/02 06:05:18;;;;;;;19.30;4.40;;;21.80;68.30;;;;;;5058321;28;20277;-65
2021/05/02 06:07:45;;;;;;;20.83;4.60;;;21.80;70.70;;;;;;5057845;28;20611;-67
2021/05/02 06:10:13;;;;;;;17.17;4.30;;;21.80;73.90;;;;;;5058978;28;20194;-65
2021/05/02 06:12:40;;;;;;;18.27;3.93;;;21.90;73.50;;;;;;5061113;28;20188;-67
2021/05/02 06:15:10;;;;;;;23.37;3.77;;;21.90;77.80;;;;;;5059763;28;20202;-64
2021/05/02 06:17:37;;;;;;;22.37;4.50;;;21.90;76.50;;;;;;5054032;28;20210;-64
2021/05/02 06:20:05;;;;;;;27.47;3.70;;;22.10;77.70;;;;;;5057617;28;20540;-67
2021/05/02 06:22:31;;;;;;;13.63;3.70;;;22.20;76.40;;;;;;5059769;28;20646;-67
2021/05/02 06:24:57;;;;;;;23.50;4.00;;;22.50;78.00;;;;;;5057398;28;20187;-67
2021/05/02 06:27:24;;;;;;;20.00;3.70;;;22.60;76.10;;;;;;5046054;28;20183;-64
2021/05/02 06:29:50;;;;;;;22.27;4.80;;;22.60;75.60;;;;;;5060684;28;20616;-66
2021/05/02 06:32:16;;;;;;;15.53;4.27;;;22.60;76.70;;;;;;5059982;28;20226;-65
2021/05/02 06:34:43;;;;;;;14.80;3.53;;;22.70;76.30;;;;;;5060790;28;20179;-66
2021/05/02 06:37:10;;;;;;;17.10;4.00;;;22.70;77.90;;;;;;5059078;28;20214;-66
2021/05/02 06:39:36;;;;;;;14.30;4.03;;;22.80;79.20;;;;;;5061901;28;20183;-66
2021/05/02 06:42:03;;;;;;;15.10;4.00;;;22.90;78.60;;;;;;5062940;28;20882;-66
2021/05/02 06:44:29;;;;;;;25.87;3.90;;;23.10;78.20;;;;;;5076610;28;20571;-66
2021/05/02 06:46:56;;;;;;;20.33;3.83;;;23.20;78.30;;;;;;5061239;28;20602;-67
2021/05/02 06:49:23;;;;;;;30.47;4.40;;;23.40;76.10;;;;;;5061447;28;20211;-67
2021/05/02 06:51:52;;;;;;;23.77;4.18;;;23.60;74.30;;;;;;5057649;28;21191;-67
2021/05/02 06:54:19;;;;;;;11.98;3.05;;;23.60;76.90;;;;;;5060226;28;20262;-73
2021/05/02 06:56:46;;;;;;;20.23;3.90;;;23.70;75.70;;;;;;5057220;28;20253;-69
2021/05/02 06:59:13;;;;;;;12.98;3.03;;;23.70;76.70;;;;;;5053905;28;20183;-69
2021/05/02 07:01:40;;;;;;;16.37;3.70;;;23.80;76.90;;;;;;5054871;28;20202;-69
2021/05/02 07:04:07;;;;;;;25.58;4.13;;;23.90;76.50;;;;;;5057769;28;20187;-69
2021/05/02 07:06:35;;;;;;;14.57;3.80;;;24.10;76.20;;;;;;5057962;28;20187;-66
2021/05/02 07:09:04;;;;;;;21.60;3.75;;;24.10;76.00;;;;;;5059007;28;20183;-68
2021/05/02 07:11:31;;;;;;;19.40;3.63;;;24.10;75.50;;;;;;5056913;28;20222;-67
2021/05/02 07:13:58;;;;;;;17.75;3.67;;;24.30;74.10;;;;;;5054286;28;20286;-67
2021/05/02 07:16:25;;;;;;;17.30;4.20;;;24.40;74.60;;;;;;5056662;28;20221;-67
2021/05/02 07:18:52;;;;;;;19.92;3.63;;;24.80;73.30;;;;;;5059082;28;20191;-68
2021/05/02 07:21:20;;;;;;;31.33;4.43;;;25.10;72.30;;;;;;5058512;28;20195;-65
2021/05/02 07:23:50;;;;;;;17.70;3.75;;;25.10;72.00;;;;;;5061891;28;20289;-67
2021/05/02 07:26:19;;;;;;;20.45;3.95;;;25.10;72.20;;;;;;5062450;28;20202;-68
2021/05/02 07:28:48;;;;;;;19.23;3.75;;;25.10;71.60;;;;;;5062507;28;20194;-69
2021/05/02 07:31:15;;;;;;;22.27;4.55;;;25.50;70.00;;;;;;5063675;28;20635;-68
2021/05/02 07:33:43;;;;;;;19.77;4.15;;;25.90;68.30;;;;;;5062276;28;20175;-69
2021/05/02 07:36:10;;;;;;;23.15;3.83;;;26.10;68.90;;;;;;5062559;28;20219;-67
2021/05/02 07:38:37;;;;;;;26.90;4.57;;;26.40;68.10;;;;;;5061822;28;20222;-71
2021/05/02 07:41:05;;;;;;;28.67;4.47;;;26.50;68.00;;;;;;5067242;28;20203;-70
2021/05/02 07:43:33;;;;;;;24.17;4.30;;;26.70;66.20;;;;;;5058644;28;20628;-66
2021/05/02 07:46:03;;;;;;;24.15;4.13;;;26.90;66.40;;;;;;5062682;28;20686;-67
2021/05/02 07:48:31;;;;;;;17.63;4.53;;;26.80;66.50;;;;;;5062526;28;20190;-69
2021/05/02 07:50:58;;;;;;;25.30;4.68;;;26.70;67.20;;;;;;5062086;28;20198;-67
2021/05/02 07:53:25;;;;;;;17.20;3.80;;;27.00;66.60;;;;;;5061700;28;20240;-65
2021/05/02 07:55:52;;;;;;;13.10;3.65;;;27.10;67.50;;;;;;5063535;28;20706;-70
2021/05/02 07:58:18;;;;;;;19.48;3.80;;;27.30;65.50;;;;;;5062054;28;20226;-69
2021/05/02 08:00:44;;;;;;;15.32;3.67;;;27.40;64.80;;;;;;5060826;28;20187;-67
2021/05/02 08:03:11;;;;;;;17.15;4.57;;;27.60;65.90;;;;;;5066895;28;20814;-67
2021/05/02 08:05:38;;;;;;;14.85;3.75;;;27.70;67.00;;;;;;5061340;28;20201;-65
2021/05/02 08:08:05;;;;;;;23.52;4.28;;;27.60;67.60;;;;;;5060764;28;20198;-66
2021/05/02 08:10:32;;;;;;;17.52;3.80;;;28.10;66.80;;;;;;5046840;28;20191;-68
2021/05/02 08:12:58;;;;;;;16.42;3.88;;;28.10;66.20;;;;;;5064767;28;20188;-67
2021/05/02 08:15:27;;;;;;;23.83;4.05;;;28.20;65.90;;;;;;5061301;28;20203;-65
2021/05/02 08:17:56;;;;;;;27.33;4.38;;;28.40;64.00;;;;;;5060418;28;20312;-69
2021/05/02 08:20:23;;;;;;;16.25;3.67;;;28.50;65.60;;;;;;5064047;28;20179;-67
2021/05/02 08:22:49;;;;;;;14.30;3.83;;;28.60;66.90;;;;;;5062980;28;20552;-65
2021/05/02 08:25:16;;;;;;;13.90;3.33;;;28.70;64.10;;;;;;5064015;28;20919;-67
2021/05/02 08:27:44;;;;;;;18.65;3.83;;;28.80;64.50;;;;;;5065438;28;20190;-66
2021/05/02 08:30:12;;;;;;;14.75;4.05;;;29.00;64.10;;;;;;5044027;28;20194;-65
2021/05/02 08:32:38;;;;;;;18.40;3.63;;;29.10;61.30;;;;;;5060030;28;20211;-67
2021/05/02 08:35:07;;;;;;;23.13;4.30;;;29.20;62.10;;;;;;5058554;28;20258;-66
2021/05/02 08:37:33;;;;;;;22.58;4.22;;;29.30;60.60;;;;;;5062364;28;20203;-66
2021/05/02 08:39:59;;;;;;;20.25;3.75;;;29.40;61.90;;;;;;5062215;28;20196;-65
2021/05/02 08:42:26;;;;;;;13.38;4.25;;;29.40;62.00;;;;;;5059982;28;20202;-66
2021/05/02 08:44:53;;;;;;;18.35;3.78;;;29.40;62.50;;;;;;5063152;28;20195;-68
2021/05/02 08:47:22;;;;;;;18.35;3.80;;;29.30;61.40;;;;;;5063621;28;20187;-69
2021/05/02 08:49:48;;;;;;;23.30;4.50;;;29.50;62.70;;;;;;5059171;28;20214;-65
2021/05/02 08:52:15;;;;;;;28.10;4.55;;;29.60;61.90;;;;;;5061741;28;20194;-66
2021/05/02 08:54:46;;;;;;;21.40;4.15;;;29.80;60.00;;;;;;5063667;28;20639;-67
2021/05/02 08:57:13;;;;;;;21.10;4.03;;;29.80;61.00;;;;;;5061530;28;20345;-66
2021/05/02 08:59:42;;;;;;;22.55;4.10;;;29.90;60.10;;;;;;5055589;28;20212;-66
2021/05/02 09:02:24;;;;;;;20.85;5.07;;;29.90;60.80;;;;;;5062412;28;20639;-68
2021/05/02 09:05:00;;;;;;;19.08;3.67;;;30.00;59.00;;;;;;5062021;28;20281;-67
2021/05/02 09:07:27;;;;;;;16.33;4.03;;;30.00;59.10;;;;;;5063459;28;20186;-67
2021/05/02 09:09:54;;;;;;;17.33;4.22;;;30.10;58.70;;;;;;5061830;28;20187;-66
2021/05/02 09:12:26;;;;;;;24.02;4.35;;;30.20;60.10;;;;;;5065139;28;20235;-65
2021/05/02 09:14:53;;;;;;;18.85;4.22;;;30.30;59.30;;;;;;5058288;28;20183;-66
2021/05/02 09:17:31;;;;;;;18.70;4.10;;;30.40;60.30;;;;;;5046651;28;20179;-65
2021/05/02 09:19:58;;;;;;;13.27;3.28;;;30.50;60.10;;;;;;5060209;28;20186;-66
2021/05/02 09:22:25;;;;;;;18.70;3.90;;;30.60;58.80;;;;;;5062156;28;20252;-65
2021/05/02 09:25:18;;;;;;;15.30;3.70;;;30.60;59.80;;;;;;5062135;28;20236;-68
2021/05/02 09:27:53;;;;;;;20.15;4.35;;;30.70;59.40;;;;;;5062581;28;20192;-68
2021/05/02 09:30:21;;;;;;;24.73;4.32;;;30.70;59.10;;;;;;5065504;28;20718;-66
2021/05/02 09:32:49;;;;;;;13.45;3.50;;;31.00;58.40;;;;;;5060564;28;20203;-69
2021/05/02 09:35:33;;;;;;;16.83;4.28;;;31.00;59.60;;;;;;5062961;28;20218;-67
2021/05/02 09:38:18;;;;;;;20.80;3.88;;;31.00;57.80;;;;;;5060476;28;20194;-70
2021/05/02 09:40:54;;;;;;;25.20;4.25;;;31.10;57.90;;;;;;5057823;28;20337;-67
2021/05/02 09:43:49;;;;;;;20.08;3.63;;;31.00;59.00;;;;;;5061276;28;20420;-69
2021/05/02 09:49:11;;;;;;;17.75;4.38;;;31.30;60.20;;;;;;5059549;28;20187;-69
2021/05/02 09:51:54;;;;;;;17.73;3.55;;;31.30;61.20;;;;;;5057540;28;20739;-69
2021/05/02 09:54:27;;;;;;;19.95;3.95;;;31.30;61.70;;;;;;5059086;28;20280;-67
2021/05/02 09:56:58;;;;;;;21.40;4.22;;;31.50;62.20;;;;;;5061212;28;20214;-68
2021/05/02 09:59:34;;;;;;;19.52;4.45;;;31.40;62.50;;;;;;5062111;28;20277;-67
2021/05/02 10:02:12;;;;;;;13.40;4.13;;;31.50;63.70;;;;;;5047461;28;20178;-68
2021/05/02 10:04:47;;;;;;;20.15;4.10;;;31.40;64.10;;;;;;5057336;28;20962;-65
2021/05/02 10:07:21;;;;;;;26.60;4.20;;;31.50;64.00;;;;;;5042791;28;20190;-67
2021/05/02 10:09:50;;;;;;;19.40;4.05;;;31.40;64.00;;;;;;5059640;28;20192;-67
2021/05/02 10:12:17;;;;;;;21.83;4.72;;;31.40;62.50;;;;;;5059122;28;20249;-68
2021/05/02 10:14:48;;;;;;;15.65;3.75;;;31.60;61.70;;;;;;5062569;28;20191;-68
2021/05/02 10:17:15;;;;;;;18.98;4.45;;;31.60;62.40;;;;;;5063817;28;20215;-67
2021/05/02 10:19:42;;;;;;;16.05;3.63;;;31.80;60.20;;;;;;5057140;28;20269;-67
2021/05/02 10:22:11;;;;;;;16.80;3.95;;;31.90;59.50;;;;;;5060321;28;20189;-66
2021/05/02 10:24:40;;;;;;;16.35;4.25;;;32.10;57.20;;;;;;5056145;28;20222;-66
2021/05/02 10:27:10;;;;;;;22.00;4.22;;;32.10;55.90;;;;;;5059621;28;20618;-69
2021/05/02 10:29:40;;;;;;;21.58;4.28;;;32.10;56.00;;;;;;5060298;28;20178;-68
2021/05/02 10:32:13;;;;;;;17.20;3.90;;;32.20;54.60;;;;;;5061921;28;20191;-67
2021/05/02 10:34:49;;;;;;;14.70;3.92;;;32.30;53.10;;;;;;5061123;28;20221;-67
2021/05/02 10:37:29;;;;;;;27.63;3.72;;;32.40;53.40;;;;;;5059285;28;20210;-66
2021/05/02 10:40:20;;;;;;;17.25;3.72;;;32.50;53.10;;;;;;5061423;28;20196;-64
2021/05/02 10:42:59;;;;;;;15.80;3.40;;;32.30;55.20;;;;;;5057652;28;20209;-66
2021/05/02 10:45:36;;;;;;;23.35;4.00;;;32.20;54.00;;;;;;5061474;28;20225;-65
2021/05/02 10:48:09;;;;;;;18.38;4.03;;;32.20;61.10;;;;;;5061903;28;20186;-68
2021/05/02 10:50:44;;;;;;;16.25;3.22;;;32.20;60.00;;;;;;5059320;28;20811;-67
2021/05/02 10:53:29;;;;;;;18.13;3.55;;;32.20;59.30;;;;;;5065829;28;20608;-66
2021/05/02 10:56:10;;;;;;;14.18;3.78;;;32.20;63.00;;;;;;5063827;28;20207;-67
2021/05/02 10:58:41;;;;;;;18.92;3.22;;;32.20;65.00;;;;;;5066271;28;20186;-67
2021/05/02 11:01:24;;;;;;;15.68;4.10;;;32.10;66.00;;;;;;5063177;28;20542;-67
2021/05/02 11:03:53;;;;;;;10.60;3.53;;;32.00;64.90;;;;;;5064812;28;20539;-67
2021/05/02 11:06:38;;;;;;;24.63;3.70;;;31.90;64.80;;;;;;5062213;28;20175;-67
2021/05/02 11:09:05;;;;;;;19.38;4.10;;;31.90;64.90;;;;;;5056284;28;20180;-66
2021/05/02 11:11:31;;;;;;;14.30;3.65;;;31.90;62.00;;;;;;5060096;28;20182;-67
2021/05/02 11:14:11;;;;;;;16.27;3.40;;;31.90;63.60;;;;;;5062727;28;20272;-69
2021/05/02 11:17:16;;;;;;;19.65;4.13;;;31.90;63.20;;;;;;5061474;28;20627;-66
2021/05/02 11:19:43;;;;;;;15.80;3.70;;;31.80;65.60;;;;;;5062612;28;20191;-68
2021/05/02 11:22:11;;;;;;;23.48;4.03;;;31.80;65.70;;;;;;5065731;28;20178;-67
2021/05/02 11:24:45;;;;;;;16.58;3.40;;;31.70;66.70;;;;;;5046571;28;20186;-68
2021/05/02 11:27:21;;;;;;;18.25;4.28;;;31.60;61.80;;;;;;5066571;28;20194;-67
2021/05/02 11:32:29;;;;;;;14.10;3.70;;;31.50;64.70;;;;;;5062379;28;20578;-66
2021/05/02 11:35:03;;;;;;;22.05;3.60;;;31.30;63.60;;;;;;5064186;28;20187;-67
2021/05/02 11:38:05;;;;;;;13.27;3.47;;;31.50;64.00;;;;;;5064079;28;20213;-67
2021/05/02 11:40:32;;;;;;;18.45;3.40;;;31.60;65.60;;;;;;5065088;28;20273;-67
2021/05/02 11:43:16;;;;;;;18.80;3.60;;;31.50;63.90;;;;;;5066185;28;20205;-68
2021/05/02 11:46:02;;;;;;;20.88;3.67;;;31.50;61.10;;;;;;5064273;28;20225;-66
2021/05/02 11:48:38;;;;;;;20.60;4.25;;;31.60;59.50;;;;;;5063027;28;20257;-68
2021/05/02 11:51:29;;;;;;;20.25;3.90;;;31.70;59.40;;;;;;5063903;28;20268;-67
2021/05/02 11:53:57;;;;;;;14.75;3.35;;;31.90;59.30;;;;;;5064516;28;20244;-67
2021/05/02 11:56:30;;;;;;;19.60;4.10;;;31.90;58.60;;;;;;5065584;28;20217;-67
2021/05/02 11:59:09;;;;;;;13.40;3.58;;;31.90;57.60;;;;;;5062109;28;20187;-66
2021/05/02 12:01:40;;;;;;;12.48;3.15;;;31.90;61.00;;;;;;5062191;28;20228;-68
2021/05/02 12:04:14;;;;;;;18.67;3.83;;;32.00;59.40;;;;;;5065671;28;20181;-68
2021/05/02 12:06:41;;;;;;;13.50;3.13;;;31.90;58.60;;;;;;5060519;28;20834;-66
2021/05/02 12:09:16;;;;;;;21.20;4.07;;;31.90;61.50;;;;;;5060597;28;20205;-68
2021/05/02 12:11:44;;;;;;;12.88;3.78;;;31.90;59.00;;;;;;5065404;28;20194;-68
2021/05/02 12:14:23;;;;;;;14.70;3.63;;;31.90;56.00;;;;;;5063021;28;20199;-67
2021/05/02 12:16:55;;;;;;;20.10;3.78;;;31.90;57.70;;;;;;5061726;28;20215;-67
2021/05/02 12:19:23;;;;;;;17.10;3.67;;;31.90;58.00;;;;;;5062340;28;20661;-67
2021/05/02 12:21:50;;;;;;;10.15;3.22;;;31.90;57.30;;;;;;5044451;28;20528;-66
2021/05/02 12:24:20;;;;;;;26.67;4.00;;;31.90;55.20;;;;;;5063141;28;20192;-66
2021/05/02 12:26:51;;;;;;;18.05;3.92;;;31.80;59.70;;;;;;5078253;28;20187;-66
2021/05/02 12:29:35;;;;;;;20.63;4.40;;;31.90;58.70;;;;;;5062130;28;20670;-67
2021/05/02 12:32:11;;;;;;;17.50;4.20;;;31.80;57.80;;;;;;5063713;28;20233;-65
2021/05/02 12:34:47;;;;;;;11.65;3.40;;;31.70;57.60;;;;;;5055997;28;20190;-66
2021/05/02 12:37:23;;;;;;;20.70;4.03;;;31.80;58.30;;;;;;5063880;28;20498;-66
2021/05/02 12:39:54;;;;;;;15.95;3.60;;;31.80;57.80;;;;;;5064010;28;20197;-67
2021/05/02 12:42:38;;;;;;;14.00;3.50;;;31.80;56.50;;;;;;5059239;28;20547;-68
2021/05/02 12:45:07;;;;;;;19.85;3.42;;;31.60;56.70;;;;;;5063682;28;20180;-65
2021/05/02 12:47:47;;;;;;;13.50;3.53;;;31.70;56.10;;;;;;5064701;28;20531;-68
2021/05/02 12:50:14;;;;;;;19.05;3.75;;;31.60;55.20;;;;;;5059536;28;20199;-67
2021/05/02 12:52:44;;;;;;;23.17;4.28;;;31.60;53.90;;;;;;5060787;28;20211;-66
2021/05/02 12:55:31;;;;;;;16.42;3.47;;;31.50;53.10;;;;;;5060951;28;20179;-65
2021/05/02 12:58:02;;;;;;;18.42;3.33;;;31.40;53.80;;;;;;5061320;28;20191;-68